This is the latest recevied weather packets stored in our database for station/object HB9CYX-13. If no packets are shown the sender has not sent any weather packets the latest 10 day(s).
| Time | Temp. | Humidity | Pressure | Rain* | Wind** | Luminosity | Snow |
|---|---|---|---|---|---|---|---|
| 1777835324 | 15.56° C | 47% | 1016.3 hPa | 0.25 mm | - | - | - |
| 1777834586 | 15.56° C | 45% | 1016.1 hPa | 0.25 mm | - | - | - |
| 1777833849 | 16.11° C | 44% | 1015.9 hPa | 0 mm | - | - | - |
| 1777833112 | 16.67° C | 44% | 1015.7 hPa | 0 mm | - | - | - |
| 1777832375 | 16.67° C | 44% | 1015.6 hPa | 0 mm | - | - | - |
| 1777831637 | 17.22° C | 45% | 1015.5 hPa | 0 mm | - | - | - |
| 1777830902 | 17.78° C | 44% | 1015.3 hPa | 0 mm | - | - | - |
| 1777830163 | 17.78° C | 50% | 1015.3 hPa | 0 mm | - | - | - |
| 1777829426 | 18.33° C | 45% | 1015.3 hPa | 0 mm | - | - | - |
| 1777828689 | 18.33° C | 46% | 1015.4 hPa | 0 mm | - | - | - |
| 1777827951 | 18.33° C | 50% | 1015.6 hPa | 0 mm | - | - | - |
| 1777827214 | 18.89° C | 43% | 1015.6 hPa | 0 mm | - | - | - |
| 1777826477 | 18.89° C | 43% | 1015.8 hPa | 0 mm | - | - | - |
| 1777825740 | 18.33° C | 43% | 1015.9 hPa | 0 mm | - | - | - |
| 1777825003 | 18.33° C | 44% | 1016.3 hPa | 0 mm | - | - | - |
| 1777824265 | 18.33° C | 44% | 1016.2 hPa | 0 mm | - | - | - |
| 1777823528 | 18.33° C | 42% | 1016.3 hPa | 0 mm | - | - | - |
| 1777822791 | 18.33° C | 43% | 1016.2 hPa | 0 mm | - | - | - |
| 1777822053 | 18.33° C | 44% | 1015.8 hPa | 0 mm | - | - | - |
| 1777821316 | 18.33° C | 45% | 1015.5 hPa | 0 mm | - | - | - |
| 1777820579 | 18.33° C | 47% | 1015.4 hPa | 0 mm | - | - | - |
| 1777819841 | 18.33° C | 49% | 1015.2 hPa | 0 mm | - | - | - |
| 1777819104 | 18.89° C | 51% | 1015 hPa | 0 mm | - | - | - |
| 1777818367 | 20.56° C | 39% | 1014.1 hPa | 0 mm | - | - | - |
| 1777817630 | 21.67° C | 37% | 1013.9 hPa | 0 mm | - | - | - |
* Rain latest hour (hover to see other rain measurements)
** Current wind speed in m/s (hover to see current wind gust speed)